Time;durP1;ratioP1;P1;durP2;ratioP2;P2;SDS_P1;SDS_P2;PMS_P1;PMS_P2;Temp;Humidity;BMP_temperature;BMP_pressure;BME280_temperature;BME280_humidity;BME280_pressure;Samples;Min_cycle;Max_cycle;Signal;HPM_P1;HPM_P2
2022/05/16 00:01:44;;;;;;;11.38;6.35;;;;;;;;;;6189048;28;20447;-85
2022/05/16 00:04:45;;;;;;;11.45;5.95;;;;;;;;;;6187650;28;20041;-85
2022/05/16 00:07:46;;;;;;;13.52;4.90;;;;;;;;;;6183350;28;20038;-86
2022/05/16 00:10:46;;;;;;;13.43;5.35;;;;;;;;;;6185703;28;20038;-86
2022/05/16 00:13:47;;;;;;;14.50;5.25;;;;;;;;;;6188054;28;20204;-85
2022/05/16 00:16:47;;;;;;;7.53;4.07;;;;;;;;;;6198732;28;20075;-85
2022/05/16 00:19:47;;;;;;;9.57;4.28;;;;;;;;;;6197448;28;20014;-85
2022/05/16 00:22:48;;;;;;;10.27;4.57;;;;;;;;;;6179386;28;20055;-85
2022/05/16 00:25:48;;;;;;;6.30;3.63;;;;;;;;;;6175803;28;20062;-86
2022/05/16 00:28:49;;;;;;;9.90;3.95;;;;;;;;;;6177360;28;20058;-85
2022/05/16 00:31:49;;;;;;;5.78;3.80;;;;;;;;;;6193939;28;20034;-85
2022/05/16 00:34:49;;;;;;;9.90;4.43;;;;;;;;;;6188991;28;20101;-85
2022/05/16 00:37:50;;;;;;;10.73;3.80;;;;;;;;;;6193882;28;20046;-85
2022/05/16 00:40:50;;;;;;;11.57;4.38;;;;;;;;;;6197591;28;20334;-86
2022/05/16 00:43:58;;;;;;;13.80;4.38;;;;;;;;;;6192056;28;20031;-85
2022/05/16 00:46:58;;;;;;;11.63;3.78;;;;;;;;;;6190170;28;20103;-85
2022/05/16 00:50:00;;;;;;;13.15;5.43;;;;;;;;;;6194745;28;20473;-85
2022/05/16 00:53:00;;;;;;;10.27;4.15;;;;;;;;;;6191767;28;20053;-85
2022/05/16 00:56:01;;;;;;;10.13;5.13;;;;;;;;;;6179662;28;20023;-85
2022/05/16 00:59:01;;;;;;;13.50;5.15;;;;;;;;;;6171367;28;20097;-85
2022/05/16 01:05:20;;;;;;;10.77;5.57;;;;;;;;;;6180764;28;20027;-86
2022/05/16 01:08:24;;;;;;;12.95;6.50;;;;;;;;;;6183844;28;20025;-86
2022/05/16 01:11:24;;;;;;;9.82;4.95;;;;;;;;;;6187391;28;20022;-85
2022/05/16 01:14:43;;;;;;;10.20;5.60;;;;;;;;;;6176494;28;20021;-85
2022/05/16 01:17:43;;;;;;;13.82;5.25;;;;;;;;;;6172979;28;20569;-85
2022/05/16 01:20:50;;;;;;;9.75;4.75;;;;;;;;;;6174713;28;20037;-85
2022/05/16 01:24:06;;;;;;;10.68;6.03;;;;;;;;;;6176881;28;20019;-85
2022/05/16 01:27:07;;;;;;;7.70;4.05;;;;;;;;;;6179574;28;20072;-85
2022/05/16 01:30:07;;;;;;;10.35;4.55;;;;;;;;;;6185099;28;20061;-86
2022/05/16 01:33:07;;;;;;;10.30;4.75;;;;;;;;;;6184659;28;20044;-85
2022/05/16 01:36:08;;;;;;;11.80;5.40;;;;;;;;;;6185675;28;20042;-85
2022/05/16 01:39:08;;;;;;;8.32;4.40;;;;;;;;;;6191252;28;20285;-85
2022/05/16 01:42:12;;;;;;;11.50;4.47;;;;;;;;;;6183912;28;20031;-85
2022/05/16 01:45:13;;;;;;;13.82;5.38;;;;;;;;;;6178529;28;20018;-86
2022/05/16 01:48:14;;;;;;;10.05;4.97;;;;;;;;;;6197545;28;20033;-85
2022/05/16 01:51:14;;;;;;;11.60;6.68;;;;;;;;;;6189433;28;20371;-85
2022/05/16 01:54:14;;;;;;;13.32;5.07;;;;;;;;;;6184945;28;20041;-85
2022/05/16 01:57:14;;;;;;;11.38;6.28;;;;;;;;;;6197465;28;20027;-86
2022/05/16 02:00:15;;;;;;;12.68;5.65;;;;;;;;;;6189443;28;20030;-86
2022/05/16 02:03:16;;;;;;;13.05;6.25;;;;;;;;;;6188592;28;20030;-86
2022/05/16 02:06:16;;;;;;;10.82;5.80;;;;;;;;;;6191397;28;20034;-85
2022/05/16 02:09:17;;;;;;;11.57;5.70;;;;;;;;;;6184358;28;20040;-85
2022/05/16 02:12:17;;;;;;;11.73;5.80;;;;;;;;;;6180733;28;20481;-85
2022/05/16 02:15:19;;;;;;;12.15;5.45;;;;;;;;;;6184140;28;20038;-85
2022/05/16 02:18:19;;;;;;;8.68;4.65;;;;;;;;;;6182680;28;20079;-85
2022/05/16 02:24:39;;;;;;;11.40;4.40;;;;;;;;;;6188789;28;20039;-85
2022/05/16 02:27:39;;;;;;;11.07;4.82;;;;;;;;;;6176592;28;20049;-85
2022/05/16 02:30:41;;;;;;;12.45;6.07;;;;;;;;;;6175173;28;20452;-86
2022/05/16 02:33:41;;;;;;;;;;;;;;;;;;6175764;28;20031;-85
2022/05/16 02:36:42;;;;;;;13.68;6.20;;;;;;;;;;6180975;28;19918;-85
2022/05/16 02:39:44;;;;;;;10.50;4.57;;;;;;;;;;6197989;28;20026;-86
2022/05/16 02:42:45;;;;;;;10.25;5.13;;;;;;;;;;6185950;28;20027;-85
2022/05/16 02:45:45;;;;;;;11.88;4.57;;;;;;;;;;6188918;28;20481;-85
2022/05/16 02:48:45;;;;;;;8.85;5.03;;;;;;;;;;6189682;28;20049;-85
2022/05/16 02:51:46;;;;;;;10.75;6.43;;;;;;;;;;6191088;28;20053;-85
2022/05/16 02:54:46;;;;;;;13.48;5.53;;;;;;;;;;6180027;28;20019;-85
2022/05/16 02:57:46;;;;;;;8.48;4.72;;;;;;;;;;6178998;28;20031;-85
2022/05/16 03:00:46;;;;;;;11.02;5.07;;;;;;;;;;6175829;28;20376;-85
2022/05/16 03:03:47;;;;;;;12.20;4.68;;;;;;;;;;6192214;28;20466;-85
2022/05/16 03:06:48;;;;;;;10.88;4.53;;;;;;;;;;6193656;28;20354;-85
2022/05/16 03:09:48;;;;;;;8.85;4.72;;;;;;;;;;6188305;28;20387;-85
2022/05/16 03:12:49;;;;;;;10.10;4.78;;;;;;;;;;6192730;28;20233;-85
2022/05/16 03:15:49;;;;;;;10.00;4.93;;;;;;;;;;6199343;28;20019;-85
2022/05/16 03:18:50;;;;;;;9.75;5.00;;;;;;;;;;6189830;28;20048;-85
2022/05/16 03:21:50;;;;;;;11.33;4.53;;;;;;;;;;6185137;28;20354;-85
2022/05/16 03:24:50;;;;;;;7.00;3.63;;;;;;;;;;6198016;28;20603;-85
2022/05/16 03:27:50;;;;;;;5.97;3.83;;;;;;;;;;6184268;28;20081;-85
2022/05/16 03:30:51;;;;;;;6.78;3.83;;;;;;;;;;6178634;28;20274;-85
2022/05/16 03:33:52;;;;;;;8.77;5.40;;;;;;;;;;6179912;28;20027;-85
2022/05/16 03:36:52;;;;;;;9.68;3.90;;;;;;;;;;6197013;28;20102;-85
2022/05/16 03:43:13;;;;;;;11.25;5.18;;;;;;;;;;6181486;28;20031;-85
2022/05/16 03:46:13;;;;;;;6.47;4.25;;;;;;;;;;6185577;28;20497;-85
2022/05/16 03:49:13;;;;;;;9.10;4.97;;;;;;;;;;6172506;28;20027;-85
2022/05/16 03:52:14;;;;;;;11.57;4.88;;;;;;;;;;6166214;28;20030;-85
2022/05/16 03:55:15;;;;;;;8.50;5.00;;;;;;;;;;6166216;28;20031;-85
2022/05/16 03:58:15;;;;;;;14.15;4.57;;;;;;;;;;6163719;28;20026;-85
2022/05/16 04:01:16;;;;;;;12.35;4.93;;;;;;;;;;6165625;28;20481;-85
2022/05/16 04:04:16;;;;;;;6.95;4.50;;;;;;;;;;6169465;28;20046;-86
2022/05/16 04:07:17;;;;;;;12.48;4.63;;;;;;;;;;6174285;28;20476;-85
2022/05/16 04:10:17;;;;;;;8.63;4.18;;;;;;;;;;6170226;28;20492;-85
2022/05/16 04:13:17;;;;;;;9.32;4.05;;;;;;;;;;6166782;28;20608;-85
2022/05/16 04:16:18;;;;;;;9.68;4.80;;;;;;;;;;6168309;28;20502;-85
2022/05/16 04:19:18;;;;;;;10.88;5.30;;;;;;;;;;6183925;28;20042;-85
2022/05/16 04:22:18;;;;;;;12.30;6.13;;;;;;;;;;6179161;28;20534;-85
2022/05/16 04:25:19;;;;;;;10.43;4.82;;;;;;;;;;6182522;28;20087;-85
2022/05/16 04:28:20;;;;;;;12.98;5.25;;;;;;;;;;6176122;28;20066;-85
2022/05/16 04:31:20;;;;;;;10.55;4.40;;;;;;;;;;6172436;28;20109;-85
2022/05/16 04:34:20;;;;;;;11.30;4.78;;;;;;;;;;6169939;28;20026;-85
2022/05/16 04:37:21;;;;;;;9.75;4.70;;;;;;;;;;6170670;28;20027;-85
2022/05/16 04:40:21;;;;;;;8.75;4.47;;;;;;;;;;6169294;28;20023;-85
2022/05/16 04:43:21;;;;;;;12.10;5.90;;;;;;;;;;6163006;28;20442;-86
2022/05/16 04:46:21;;;;;;;7.90;4.75;;;;;;;;;;6172396;28;20038;-85
2022/05/16 04:49:22;;;;;;;11.43;5.90;;;;;;;;;;6173882;28;20430;-85
2022/05/16 04:52:22;;;;;;;11.35;5.72;;;;;;;;;;6178801;28;20712;-85
2022/05/16 04:55:23;;;;;;;12.32;4.97;;;;;;;;;;6189080;28;20027;-85
2022/05/16 04:58:23;;;;;;;9.32;5.15;;;;;;;;;;6202830;28;20037;-85
2022/05/16 05:01:24;;;;;;;10.90;4.40;;;;;;;;;;6183641;28;20038;-85
2022/05/16 05:04:24;;;;;;;14.52;4.30;;;;;;;;;;6172696;28;20469;-85
2022/05/16 05:07:25;;;;;;;8.77;4.13;;;;;;;;;;6164414;28;20022;-85
2022/05/16 05:17:04;;;;;;;14.82;6.30;;;;;;;;;;6177750;28;20035;-86
2022/05/16 05:20:12;;;;;;;17.95;7.30;;;;;;;;;;6176673;28;20080;-87
2022/05/16 05:23:13;;;;;;;14.73;6.03;;;;;;;;;;6170952;28;20029;-86
2022/05/16 05:26:13;;;;;;;13.03;5.03;;;;;;;;;;6180020;28;20386;-86
2022/05/16 05:29:16;;;;;;;17.30;5.67;;;;;;;;;;6178957;28;20055;-86
2022/05/16 05:32:16;;;;;;;11.55;5.53;;;;;;;;;;6188503;28;20023;-86
2022/05/16 05:35:17;;;;;;;19.63;6.20;;;;;;;;;;6168695;28;20409;-86
2022/05/16 05:38:18;;;;;;;17.80;6.38;;;;;;;;;;6172288;28;20067;-86
2022/05/16 05:41:20;;;;;;;15.93;7.40;;;;;;;;;;6173524;28;20095;-86
2022/05/16 05:44:20;;;;;;;16.42;5.70;;;;;;;;;;6180935;28;20068;-86
2022/05/16 05:47:21;;;;;;;13.60;5.70;;;;;;;;;;6178298;28;20031;-86
2022/05/16 05:50:21;;;;;;;15.65;6.28;;;;;;;;;;6164367;28;20104;-87
2022/05/16 05:53:21;;;;;;;16.83;5.77;;;;;;;;;;6182721;28;20072;-87
2022/05/16 05:56:22;;;;;;;10.83;6.07;;;;;;;;;;6177991;28;20019;-87
2022/05/16 05:59:23;;;;;;;15.63;7.07;;;;;;;;;;6172428;28;20011;-86
2022/05/16 06:02:24;;;;;;;19.83;7.18;;;;;;;;;;6173018;28;20037;-85
2022/05/16 06:05:25;;;;;;;13.48;6.20;;;;;;;;;;6180770;28;20082;-86
2022/05/16 06:08:25;;;;;;;14.00;5.30;;;;;;;;;;6177168;28;20118;-86
2022/05/16 06:11:28;;;;;;;16.13;5.63;;;;;;;;;;6170181;28;20050;-86
2022/05/16 06:14:28;;;;;;;12.57;5.90;;;;;;;;;;6186127;28;20026;-86
2022/05/16 06:17:28;;;;;;;24.10;7.07;;;;;;;;;;6180581;28;20076;-86
2022/05/16 06:20:29;;;;;;;12.57;5.97;;;;;;;;;;6170874;28;20462;-86
2022/05/16 06:23:29;;;;;;;16.33;5.23;;;;;;;;;;6169281;28;20032;-86
2022/05/16 06:26:29;;;;;;;;;;;;;;;;;;6179862;28;20095;-86
2022/05/16 06:29:29;;;;;;;11.85;5.35;;;;;;;;;;6176207;28;19911;-86
2022/05/16 06:32:29;;;;;;;;;;;;;;;;;;6172170;28;20027;-86
2022/05/16 06:35:45;;;;;;;13.75;6.05;;;;;;;;;;6211493;28;19910;-86
2022/05/16 06:38:45;;;;;;;13.13;5.82;;;;;;;;;;6177775;28;20037;-84
2022/05/16 06:41:45;;;;;;;;;;;;;;;;;;6189585;28;20027;-84
2022/05/16 06:44:46;;;;;;;11.73;5.68;;;;;;;;;;6183717;28;19910;-85
2022/05/16 06:47:46;;;;;;;16.43;6.13;;;;;;;;;;6177068;28;20046;-85
2022/05/16 06:50:47;;;;;;;15.93;6.23;;;;;;;;;;6191646;28;20027;-85
2022/05/16 06:53:48;;;;;;;17.75;7.35;;;;;;;;;;6177202;28;20114;-85
2022/05/16 06:56:48;;;;;;;21.38;6.28;;;;;;;;;;6180058;28;20034;-85
2022/05/16 06:59:48;;;;;;;17.17;6.77;;;;;;;;;;6181598;28;20019;-86
2022/05/16 07:02:49;;;;;;;14.97;6.57;;;;;;;;;;6181492;28;20113;-85
2022/05/16 07:05:49;;;;;;;22.17;7.67;;;;;;;;;;6190359;28;20027;-86
2022/05/16 07:08:49;;;;;;;18.42;7.20;;;;;;;;;;6174200;28;20023;-86
2022/05/16 07:11:50;;;;;;;13.63;6.00;;;;;;;;;;6178571;28;20026;-86
2022/05/16 07:14:50;;;;;;;12.70;6.87;;;;;;;;;;6176890;28;20023;-86
2022/05/16 07:17:50;;;;;;;6.88;3.40;;;;;;;;;;6188373;28;20025;-86
2022/05/16 07:20:51;;;;;;;10.83;3.23;;;;;;;;;;6173687;28;20029;-87
2022/05/16 07:23:51;;;;;;;9.02;4.00;;;;;;;;;;6181962;28;20023;-86
2022/05/16 07:30:12;;;;;;;5.72;2.00;;;;;;;;;;6174198;28;20034;-86
2022/05/16 07:33:12;;;;;;;9.07;3.17;;;;;;;;;;6174804;28;20057;-86
2022/05/16 07:36:12;;;;;;;12.77;3.05;;;;;;;;;;6180692;28;20117;-87
2022/05/16 07:39:13;;;;;;;3.63;2.28;;;;;;;;;;6178286;28;20593;-86
2022/05/16 07:42:13;;;;;;;8.83;2.90;;;;;;;;;;6169973;28;20011;-86
2022/05/16 07:45:13;;;;;;;7.33;2.50;;;;;;;;;;6168251;28;20045;-86
2022/05/16 07:48:15;;;;;;;7.65;3.35;;;;;;;;;;6164821;28;20098;-86
2022/05/16 07:51:15;;;;;;;8.82;2.47;;;;;;;;;;6171592;28;20367;-86
2022/05/16 07:54:15;;;;;;;4.82;2.13;;;;;;;;;;6166920;28;20019;-86
2022/05/16 07:57:17;;;;;;;6.53;1.37;;;;;;;;;;6172291;28;20043;-87
2022/05/16 08:00:19;;;;;;;7.13;2.42;;;;;;;;;;6176091;28;20055;-86
2022/05/16 08:03:20;;;;;;;5.97;2.72;;;;;;;;;;6185194;28;20441;-86
2022/05/16 08:06:21;;;;;;;4.55;1.98;;;;;;;;;;6188803;28;20053;-87
2022/05/16 08:12:40;;;;;;;5.68;1.70;;;;;;;;;;6175229;28;20099;-88
2022/05/16 08:15:41;;;;;;;3.53;1.57;;;;;;;;;;6180945;28;20065;-86
2022/05/16 08:18:41;;;;;;;5.45;1.90;;;;;;;;;;6181210;28;20098;-86
2022/05/16 08:21:42;;;;;;;2.72;1.25;;;;;;;;;;6180676;28;20014;-87
2022/05/16 08:24:42;;;;;;;6.63;1.97;;;;;;;;;;6175714;28;20451;-86
2022/05/16 08:27:42;;;;;;;5.20;1.70;;;;;;;;;;6185859;28;20273;-87
2022/05/16 08:30:43;;;;;;;9.63;1.77;;;;;;;;;;6170660;28;20041;-86
2022/05/16 08:33:43;;;;;;;2.42;1.08;;;;;;;;;;6182888;28;20029;-86
2022/05/16 08:40:03;;;;;;;3.78;0.93;;;;;;;;;;6176567;28;20762;-86
2022/05/16 08:43:07;;;;;;;2.33;1.00;;;;;;;;;;6192636;28;20434;-87
2022/05/16 08:46:14;;;;;;;3.85;1.15;;;;;;;;;;6186515;28;20018;-87
2022/05/16 08:49:27;;;;;;;3.28;1.45;;;;;;;;;;6179113;28;20011;-87
2022/05/16 08:52:27;;;;;;;4.22;1.35;;;;;;;;;;6182694;28;20021;-87
2022/05/16 08:55:28;;;;;;;6.30;1.20;;;;;;;;;;6186517;28;20031;-86
2022/05/16 08:58:33;;;;;;;5.80;1.23;;;;;;;;;;6167806;28;20034;-87
2022/05/16 09:01:40;;;;;;;2.35;1.30;;;;;;;;;;6171931;28;20019;-87
2022/05/16 09:05:00;;;;;;;4.30;1.55;;;;;;;;;;6172436;28;20470;-87
2022/05/16 09:08:01;;;;;;;7.63;1.65;;;;;;;;;;6190318;28;20030;-87
2022/05/16 09:11:01;;;;;;;;;;;;;;;;;;6175630;28;20026;-87
2022/05/16 09:14:22;;;;;;;17.05;6.80;;;;;;;;;;6185883;28;19920;-87
2022/05/16 09:17:37;;;;;;;13.07;3.27;;;;;;;;;;6181495;28;20043;-87
2022/05/16 09:21:14;;;;;;;4.15;1.10;;;;;;;;;;6175650;28;20061;-87
2022/05/16 09:24:18;;;;;;;5.97;1.48;;;;;;;;;;6092009;28;20065;-87
2022/05/16 09:30:48;;;;;;;5.43;1.50;;;;;;;;;;6177909;28;20026;-87
2022/05/16 09:33:56;;;;;;;4.05;2.28;;;;;;;;;;6179969;28;20540;-87
2022/05/16 09:36:56;;;;;;;6.40;2.17;;;;;;;;;;6187649;28;20064;-86
2022/05/16 09:39:56;;;;;;;7.07;1.77;;;;;;;;;;6187038;28;20010;-86
2022/05/16 09:43:03;;;;;;;3.90;1.73;;;;;;;;;;6178624;28;20007;-86
2022/05/16 09:46:10;;;;;;;7.88;1.48;;;;;;;;;;6190107;28;20744;-87
2022/05/16 09:49:18;;;;;;;3.45;1.65;;;;;;;;;;6171641;28;20023;-87
2022/05/16 09:52:21;;;;;;;4.07;1.67;;;;;;;;;;6188202;28;20022;-86
2022/05/16 09:55:35;;;;;;;3.92;2.00;;;;;;;;;;6193114;28;20068;-87
2022/05/16 09:58:45;;;;;;;2.45;1.70;;;;;;;;;;6178212;28;20510;-86
2022/05/16 10:01:51;;;;;;;4.57;1.80;;;;;;;;;;6194917;28;20015;-87
2022/05/16 10:04:56;;;;;;;4.80;1.63;;;;;;;;;;6190418;28;20015;-87
2022/05/16 10:08:03;;;;;;;5.43;1.77;;;;;;;;;;6184499;28;20019;-87
2022/05/16 10:11:07;;;;;;;3.28;1.45;;;;;;;;;;6185460;28;20597;-87
2022/05/16 10:14:07;;;;;;;3.08;1.55;;;;;;;;;;6194125;28;20058;-87
2022/05/16 10:17:09;;;;;;;5.20;1.70;;;;;;;;;;6197526;28;20110;-87
2022/05/16 10:20:12;;;;;;;7.85;1.63;;;;;;;;;;6197987;28;20083;-86
2022/05/16 10:23:18;;;;;;;3.67;1.52;;;;;;;;;;6187940;28;20023;-86
2022/05/16 10:26:20;;;;;;;4.20;2.00;;;;;;;;;;6171530;28;20053;-86
2022/05/16 10:29:23;;;;;;;4.43;1.20;;;;;;;;;;6177235;28;20026;-86
2022/05/16 10:35:48;;;;;;;3.05;1.40;;;;;;;;;;6176036;28;20026;-86
2022/05/16 10:38:53;;;;;;;2.83;1.55;;;;;;;;;;6172044;28;20050;-86
2022/05/16 10:42:03;;;;;;;4.55;1.60;;;;;;;;;;6166149;28;20018;-85
2022/05/16 10:45:24;;;;;;;4.78;1.48;;;;;;;;;;6175585;28;20106;-86
2022/05/16 10:48:44;;;;;;;7.95;1.58;;;;;;;;;;6170028;28;20035;-87
2022/05/16 10:51:52;;;;;;;4.20;1.48;;;;;;;;;;6167223;28;20387;-87
2022/05/16 10:54:52;;;;;;;3.83;1.40;;;;;;;;;;6190254;28;20019;-87
2022/05/16 10:58:05;;;;;;;2.53;1.13;;;;;;;;;;6171975;28;20492;-86
2022/05/16 11:01:11;;;;;;;4.22;1.55;;;;;;;;;;6181713;28;20019;-87
2022/05/16 11:04:13;;;;;;;4.38;1.20;;;;;;;;;;6192611;28;20022;-86
2022/05/16 11:07:36;;;;;;;2.65;1.20;;;;;;;;;;6160070;28;20109;-87
2022/05/16 11:10:39;;;;;;;3.00;1.20;;;;;;;;;;6173915;28;20026;-87
2022/05/16 11:13:44;;;;;;;4.63;1.08;;;;;;;;;;6175398;28;20026;-86
2022/05/16 11:16:46;;;;;;;7.15;1.70;;;;;;;;;;6167692;28;20023;-87
2022/05/16 11:20:15;;;;;;;8.48;1.50;;;;;;;;;;6176168;28;20474;-87
2022/05/16 11:23:16;;;;;;;3.75;1.50;;;;;;;;;;6185171;28;20022;-86
2022/05/16 11:26:20;;;;;;;6.32;2.42;;;;;;;;;;6172139;28;20072;-86
2022/05/16 11:29:32;;;;;;;15.35;3.60;;;;;;;;;;6190143;28;20118;-86
2022/05/16 11:32:32;;;;;;;8.73;1.98;;;;;;;;;;6191354;28;20019;-86
2022/05/16 11:35:41;;;;;;;5.83;1.73;;;;;;;;;;6198945;28;20018;-86
2022/05/16 11:39:01;;;;;;;7.13;1.85;;;;;;;;;;6180054;28;20390;-87
2022/05/16 11:42:01;;;;;;;9.27;1.70;;;;;;;;;;6177174;28;20027;-87
2022/05/16 11:45:20;;;;;;;5.60;1.40;;;;;;;;;;6168818;28;20027;-86
2022/05/16 11:48:40;;;;;;;4.32;1.15;;;;;;;;;;6189809;28;20389;-86
2022/05/16 11:51:58;;;;;;;5.65;1.60;;;;;;;;;;6178124;28;20144;-86
2022/05/16 11:55:01;;;;;;;6.28;1.70;;;;;;;;;;6168180;28;20024;-87
2022/05/16 12:01:40;;;;;;;4.18;1.58;;;;;;;;;;6163906;28;20039;-86
2022/05/16 12:04:42;;;;;;;4.35;2.13;;;;;;;;;;6171133;28;20027;-86
2022/05/16 12:07:47;;;;;;;4.78;1.83;;;;;;;;;;6174645;28;20019;-86
2022/05/16 12:11:03;;;;;;;12.30;1.90;;;;;;;;;;6170636;28;20033;-86
2022/05/16 12:14:06;;;;;;;6.80;1.70;;;;;;;;;;6174008;28;20023;-86
2022/05/16 12:17:18;;;;;;;6.10;1.58;;;;;;;;;;6180446;28;20037;-86
2022/05/16 12:20:33;;;;;;;5.40;1.65;;;;;;;;;;6184302;28;20022;-86
2022/05/16 12:23:49;;;;;;;6.25;1.92;;;;;;;;;;6174928;28;20583;-86
2022/05/16 12:27:01;;;;;;;8.52;2.20;;;;;;;;;;6172515;28;20027;-86
2022/05/16 12:30:13;;;;;;;5.40;1.50;;;;;;;;;;6182124;28;20044;-86
2022/05/16 12:33:22;;;;;;;7.20;1.55;;;;;;;;;;6201710;28;20038;-86
2022/05/16 12:36:26;;;;;;;7.30;1.67;;;;;;;;;;6181253;28;20049;-86
2022/05/16 12:39:32;;;;;;;5.30;1.10;;;;;;;;;;6192976;28;20022;-86
2022/05/16 12:42:32;;;;;;;4.53;1.40;;;;;;;;;;6175211;28;20019;-86
2022/05/16 12:45:33;;;;;;;8.68;1.92;;;;;;;;;;6167984;28;20057;-86
2022/05/16 12:48:39;;;;;;;7.53;1.60;;;;;;;;;;6178526;28;20091;-86
2022/05/16 12:51:56;;;;;;;5.18;1.63;;;;;;;;;;6179936;28;20031;-86
2022/05/16 12:55:12;;;;;;;6.65;1.73;;;;;;;;;;6171420;28;20137;-86
2022/05/16 12:58:21;;;;;;;6.05;1.50;;;;;;;;;;6178874;28;20031;-86
2022/05/16 13:01:40;;;;;;;4.72;1.42;;;;;;;;;;6184505;28;20022;-86
2022/05/16 13:04:59;;;;;;;6.50;2.00;;;;;;;;;;6185075;28;20125;-86
2022/05/16 13:08:18;;;;;;;4.15;1.58;;;;;;;;;;6179435;28;20022;-87
2022/05/16 13:11:37;;;;;;;4.45;1.90;;;;;;;;;;6172428;28;20026;-86
2022/05/16 13:14:43;;;;;;;6.57;3.42;;;;;;;;;;6174855;28;20027;-85
2022/05/16 13:17:48;;;;;;;3.80;1.45;;;;;;;;;;6181770;28;20048;-85
2022/05/16 13:20:50;;;;;;;2.97;1.27;;;;;;;;;;6185575;28;20014;-86
2022/05/16 13:23:50;;;;;;;2.55;1.23;;;;;;;;;;6195791;28;20023;-87
2022/05/16 13:30:21;;;;;;;5.13;1.38;;;;;;;;;;6183221;28;20486;-86
2022/05/16 13:33:22;;;;;;;;;;;;;;;;;;6175387;28;20023;-86
2022/05/16 13:36:22;;;;;;;3.70;1.65;;;;;;;;;;6185389;28;19913;-86
2022/05/16 13:39:22;;;;;;;4.90;2.10;;;;;;;;;;6187324;28;20519;-86
2022/05/16 13:42:23;;;;;;;8.97;3.13;;;;;;;;;;6179172;28;20262;-87
2022/05/16 13:45:24;;;;;;;6.88;2.00;;;;;;;;;;6187259;28;20435;-87
2022/05/16 13:48:24;;;;;;;5.43;1.90;;;;;;;;;;6177919;28;20023;-87
2022/05/16 13:51:25;;;;;;;5.70;1.70;;;;;;;;;;6183893;28;20564;-87
2022/05/16 13:54:27;;;;;;;5.03;1.38;;;;;;;;;;6178765;28;20026;-87
2022/05/16 13:57:27;;;;;;;4.35;1.80;;;;;;;;;;6175000;28;20035;-87
2022/05/16 14:00:32;;;;;;;6.85;1.63;;;;;;;;;;6172076;28;20096;-87
2022/05/16 14:03:34;;;;;;;7.05;1.35;;;;;;;;;;6199577;28;20029;-87
2022/05/16 14:06:50;;;;;;;7.18;1.30;;;;;;;;;;6176343;28;20086;-87
2022/05/16 14:10:01;;;;;;;4.78;1.23;;;;;;;;;;6182325;28;20125;-87
2022/05/16 14:13:09;;;;;;;5.65;1.42;;;;;;;;;;6180817;28;20449;-87
2022/05/16 14:16:12;;;;;;;10.40;1.80;;;;;;;;;;6169537;28;20023;-86
2022/05/16 14:19:13;;;;;;;4.65;1.65;;;;;;;;;;6175211;28;20069;-87
2022/05/16 14:22:28;;;;;;;4.38;1.33;;;;;;;;;;6183154;28;20039;-87
2022/05/16 14:25:37;;;;;;;3.70;1.10;;;;;;;;;;6174598;28;20490;-87
2022/05/16 14:28:42;;;;;;;7.43;1.70;;;;;;;;;;6187838;28;20073;-87
2022/05/16 14:31:44;;;;;;;5.22;1.33;;;;;;;;;;6187093;28;20030;-87
2022/05/16 14:34:47;;;;;;;4.53;1.80;;;;;;;;;;6184359;28;20023;-87
2022/05/16 14:37:50;;;;;;;3.33;1.13;;;;;;;;;;6170643;28;20069;-87
2022/05/16 14:40:50;;;;;;;3.42;1.75;;;;;;;;;;6179418;28;20027;-87
2022/05/16 14:43:55;;;;;;;3.30;1.57;;;;;;;;;;6168350;28;20386;-87
2022/05/16 14:47:23;;;;;;;5.45;1.40;;;;;;;;;;6192576;28;20284;-87
2022/05/16 14:50:25;;;;;;;4.65;1.20;;;;;;;;;;6179367;28;20068;-87
2022/05/16 14:53:25;;;;;;;3.10;1.20;;;;;;;;;;6184677;28;20019;-87
2022/05/16 14:56:29;;;;;;;6.37;1.57;;;;;;;;;;6183091;28;20034;-87
2022/05/16 14:59:29;;;;;;;4.93;1.70;;;;;;;;;;6180002;28;20019;-87
2022/05/16 15:05:49;;;;;;;2.83;1.30;;;;;;;;;;6184314;28;20439;-87
2022/05/16 15:08:53;;;;;;;5.63;1.17;;;;;;;;;;6192216;28;20126;-87
2022/05/16 15:11:55;;;;;;;3.88;1.67;;;;;;;;;;6174956;28;20019;-87
2022/05/16 15:14:56;;;;;;;9.40;1.90;;;;;;;;;;6184488;28;20732;-87
2022/05/16 15:17:56;;;;;;;4.77;1.27;;;;;;;;;;6196716;28;20038;-87
2022/05/16 15:20:58;;;;;;;2.10;1.33;;;;;;;;;;6191406;28;20038;-86
2022/05/16 15:23:58;;;;;;;6.47;1.50;;;;;;;;;;6186449;28;20015;-86
2022/05/16 15:26:58;;;;;;;;;;;;;;;;;;6198920;28;20074;-86
2022/05/16 15:29:59;;;;;;;1.90;1.20;;;;;;;;;;6193352;28;19905;-85
2022/05/16 15:32:59;;;;;;;;;;;;;;;;;;6192401;28;20031;-86
2022/05/16 15:35:59;;;;;;;4.70;1.35;;;;;;;;;;6188898;28;20088;-86
2022/05/16 15:38:59;;;;;;;;;;;;;;;;;;6193301;28;20054;-87
2022/05/16 15:41:59;;;;;;;6.15;1.55;;;;;;;;;;6174528;28;19906;-85
2022/05/16 15:45:01;;;;;;;3.40;1.60;;;;;;;;;;6176656;28;20118;-85
2022/05/16 15:48:03;;;;;;;3.10;1.40;;;;;;;;;;6167878;28;20509;-85
2022/05/16 15:51:03;;;;;;;2.88;1.45;;;;;;;;;;6168463;28;20025;-85
2022/05/16 15:54:05;;;;;;;6.20;2.10;;;;;;;;;;6168018;28;20027;-85
2022/05/16 15:57:05;;;;;;;2.78;1.75;;;;;;;;;;6192884;28;20092;-86
2022/05/16 16:00:07;;;;;;;4.10;1.40;;;;;;;;;;6178691;28;20019;-86
2022/05/16 16:08:39;;;;;;;4.90;1.60;;;;;;;;;;6167006;28;20491;-86
2022/05/16 16:09:50;;;;;;;4.72;2.20;;;;;;;;;;6186621;28;20054;-86
2022/05/16 16:12:50;;;;;;;5.37;1.70;;;;;;;;;;6180508;28;20844;-86
2022/05/16 16:15:51;;;;;;;3.93;1.57;;;;;;;;;;6184693;28;20062;-87
2022/05/16 16:18:51;;;;;;;2.25;1.30;;;;;;;;;;6179869;28;20664;-87
2022/05/16 16:21:52;;;;;;;4.80;1.40;;;;;;;;;;6183411;28;20027;-87
2022/05/16 16:24:53;;;;;;;6.13;1.50;;;;;;;;;;6171208;28;20023;-87
2022/05/16 16:27:53;;;;;;;2.67;1.63;;;;;;;;;;6178862;28;20402;-86
2022/05/16 16:30:55;;;;;;;4.83;1.33;;;;;;;;;;6192468;28;20122;-86
2022/05/16 16:33:56;;;;;;;5.22;1.80;;;;;;;;;;6184651;28;20675;-85
2022/05/16 16:36:56;;;;;;;3.00;1.45;;;;;;;;;;6181268;28;20050;-85
2022/05/16 16:39:56;;;;;;;8.57;1.53;;;;;;;;;;6194488;28;20046;-85
2022/05/16 16:42:56;;;;;;;4.47;1.37;;;;;;;;;;6196578;28;20033;-86
2022/05/16 16:45:58;;;;;;;6.53;1.63;;;;;;;;;;6189979;28;20033;-85
2022/05/16 16:48:58;;;;;;;6.65;1.90;;;;;;;;;;6183560;28;20097;-86
2022/05/16 16:58:36;;;;;;;6.00;1.60;;;;;;;;;;6185315;28;20031;-86
2022/05/16 17:01:36;;;;;;;3.63;1.70;;;;;;;;;;6171049;28;20107;-86
2022/05/16 17:04:37;;;;;;;4.03;1.20;;;;;;;;;;6169206;28;20083;-86
2022/05/16 17:07:38;;;;;;;3.63;1.50;;;;;;;;;;6170410;28;20031;-85
2022/05/16 17:10:46;;;;;;;3.58;1.27;;;;;;;;;;6177689;28;21520;-86
2022/05/16 17:13:47;;;;;;;6.88;1.50;;;;;;;;;;6178385;28;20089;-86
2022/05/16 17:16:47;;;;;;;9.77;1.67;;;;;;;;;;6195995;28;20034;-86
2022/05/16 17:19:47;;;;;;;3.73;1.30;;;;;;;;;;6175861;28;20057;-86
2022/05/16 17:22:48;;;;;;;4.50;2.33;;;;;;;;;;6186606;28;20643;-85
2022/05/16 17:25:49;;;;;;;4.77;1.80;;;;;;;;;;6174236;28;20125;-86
2022/05/16 17:28:50;;;;;;;;;;;;;;;;;;6190238;28;20077;-86
2022/05/16 17:31:52;;;;;;;5.40;1.92;;;;;;;;;;6190783;28;19914;-86
2022/05/16 17:34:53;;;;;;;8.82;2.60;;;;;;;;;;6188648;28;20046;-86
2022/05/16 17:37:53;;;;;;;11.73;3.33;;;;;;;;;;6189246;28;20406;-86
2022/05/16 17:40:53;;;;;;;10.33;1.97;;;;;;;;;;6193080;28;20018;-86
2022/05/16 17:43:53;;;;;;;6.57;1.50;;;;;;;;;;6170874;28;20020;-86
2022/05/16 17:46:54;;;;;;;7.40;2.63;;;;;;;;;;6175968;28;20033;-86
2022/05/16 17:49:54;;;;;;;16.27;2.43;;;;;;;;;;6178234;28;20168;-86
2022/05/16 17:52:54;;;;;;;8.60;2.30;;;;;;;;;;6171054;28;20026;-86
2022/05/16 17:55:54;;;;;;;11.37;2.43;;;;;;;;;;6165106;28;20015;-86
2022/05/16 17:58:55;;;;;;;11.20;3.10;;;;;;;;;;6160729;28;20029;-86
2022/05/16 18:01:57;;;;;;;7.80;2.43;;;;;;;;;;6181822;28;20003;-86
2022/05/16 18:04:57;;;;;;;7.95;2.63;;;;;;;;;;6173749;28;20043;-86
2022/05/16 18:07:58;;;;;;;5.43;2.30;;;;;;;;;;6180734;28;20472;-86
2022/05/16 18:14:19;;;;;;;5.25;2.35;;;;;;;;;;6181943;28;20035;-86
2022/05/16 18:17:19;;;;;;;8.23;2.55;;;;;;;;;;6176427;28;20034;-86
2022/05/16 18:20:21;;;;;;;11.67;3.90;;;;;;;;;;6193074;28;20015;-86
2022/05/16 18:23:21;;;;;;;11.70;4.05;;;;;;;;;;6178901;28;20026;-86
2022/05/16 18:26:22;;;;;;;13.03;3.73;;;;;;;;;;6188247;28;20072;-86
2022/05/16 18:29:22;;;;;;;6.67;2.87;;;;;;;;;;6173769;28;20031;-86
2022/05/16 18:32:23;;;;;;;8.57;2.50;;;;;;;;;;6162567;28;20030;-86
2022/05/16 18:35:25;;;;;;;9.30;2.60;;;;;;;;;;6171960;28;20090;-86
2022/05/16 18:38:25;;;;;;;4.30;2.42;;;;;;;;;;6175398;28;20058;-86
2022/05/16 18:51:34;;;;;;;11.32;3.17;;;;;;;;;;6161636;28;20027;-85
2022/05/16 18:54:36;;;;;;;9.00;2.50;;;;;;;;;;6157840;28;20039;-85
2022/05/16 18:57:38;;;;;;;11.05;3.38;;;;;;;;;;6179156;28;20497;-85
2022/05/16 19:00:40;;;;;;;7.80;2.90;;;;;;;;;;6195629;28;20323;-85
2022/05/16 19:03:40;;;;;;;11.27;3.85;;;;;;;;;;6184865;28;20530;-85
2022/05/16 19:06:43;;;;;;;12.30;3.80;;;;;;;;;;6174195;28;20225;-85
2022/05/16 19:09:45;;;;;;;10.52;4.00;;;;;;;;;;6191270;28;20075;-87
2022/05/16 19:12:46;;;;;;;;;;;;;;;;;;6194930;28;20060;-85
2022/05/16 19:15:46;;;;;;;14.25;4.40;;;;;;;;;;6192737;28;19959;-86
2022/05/16 19:18:47;;;;;;;11.90;3.50;;;;;;;;;;6175950;28;20086;-86
2022/05/16 19:21:48;;;;;;;7.70;3.00;;;;;;;;;;6184845;28;20021;-86